sensor_id;sensor_type;location;lat;lon;timestamp;temperature;humidity
51725;DHT22;37801;53.224;6.552;2023-05-10T00:00:51;14.20;99.90
51725;DHT22;37801;53.224;6.552;2023-05-10T00:03:17;14.20;99.90
51725;DHT22;37801;53.224;6.552;2023-05-10T00:05:42;13.40;99.90
51725;DHT22;37801;53.224;6.552;2023-05-10T00:08:08;14.10;99.90
51725;DHT22;37801;53.224;6.552;2023-05-10T00:10:34;13.30;99.90
51725;DHT22;37801;53.224;6.552;2023-05-10T00:13:00;14.20;99.90
51725;DHT22;37801;53.224;6.552;2023-05-10T00:15:25;13.40;99.90
51725;DHT22;37801;53.224;6.552;2023-05-10T00:17:51;14.20;99.90
51725;DHT22;37801;53.224;6.552;2023-05-10T00:20:17;13.40;99.90
51725;DHT22;37801;53.224;6.552;2023-05-10T00:22:42;14.10;99.90
51725;DHT22;37801;53.224;6.552;2023-05-10T00:25:08;13.20;99.90
51725;DHT22;37801;53.224;6.552;2023-05-10T00:27:35;14.10;99.90
51725;DHT22;37801;53.224;6.552;2023-05-10T00:30:00;14.10;99.90
51725;DHT22;37801;53.224;6.552;2023-05-10T00:32:26;13.80;99.90
51725;DHT22;37801;53.224;6.552;2023-05-10T00:34:52;14.10;99.90
51725;DHT22;37801;53.224;6.552;2023-05-10T00:37:17;13.30;99.90
51725;DHT22;37801;53.224;6.552;2023-05-10T00:39:43;14.00;99.90
51725;DHT22;37801;53.224;6.552;2023-05-10T00:42:09;13.70;99.90
51725;DHT22;37801;53.224;6.552;2023-05-10T00:44:35;14.10;99.90
51725;DHT22;37801;53.224;6.552;2023-05-10T00:47:00;14.00;99.90
51725;DHT22;37801;53.224;6.552;2023-05-10T00:49:26;13.90;99.90
51725;DHT22;37801;53.224;6.552;2023-05-10T00:51:52;13.80;99.90
51725;DHT22;37801;53.224;6.552;2023-05-10T00:54:18;13.20;99.90
51725;DHT22;37801;53.224;6.552;2023-05-10T00:56:44;13.10;99.90
51725;DHT22;37801;53.224;6.552;2023-05-10T00:59:18;13.00;99.90
51725;DHT22;37801;53.224;6.552;2023-05-10T01:01:45;13.10;99.90
51725;DHT22;37801;53.224;6.552;2023-05-10T01:04:13;14.00;99.90
51725;DHT22;37801;53.224;6.552;2023-05-10T01:06:43;13.90;99.90
51725;DHT22;37801;53.224;6.552;2023-05-10T01:09:09;13.60;99.90
51725;DHT22;37801;53.224;6.552;2023-05-10T01:11:35;14.00;99.90
51725;DHT22;37801;53.224;6.552;2023-05-10T01:14:02;13.10;99.90
51725;DHT22;37801;53.224;6.552;2023-05-10T01:16:31;13.20;99.90
51725;DHT22;37801;53.224;6.552;2023-05-10T01:18:58;13.50;99.90
51725;DHT22;37801;53.224;6.552;2023-05-10T01:21:43;13.60;99.90
51725;DHT22;37801;53.224;6.552;2023-05-10T01:29:44;13.10;99.90
51725;DHT22;37801;53.224;6.552;2023-05-10T01:32:31;13.70;99.90
51725;DHT22;37801;53.224;6.552;2023-05-10T01:35:10;13.90;99.90
51725;DHT22;37801;53.224;6.552;2023-05-10T01:40:37;13.50;99.90
51725;DHT22;37801;53.224;6.552;2023-05-10T01:43:08;13.80;99.90
51725;DHT22;37801;53.224;6.552;2023-05-10T01:45:49;13.40;99.90
51725;DHT22;37801;53.224;6.552;2023-05-10T01:48:17;13.70;99.90
51725;DHT22;37801;53.224;6.552;2023-05-10T01:50:45;13.80;99.90
51725;DHT22;37801;53.224;6.552;2023-05-10T01:53:13;12.90;99.90
51725;DHT22;37801;53.224;6.552;2023-05-10T01:55:49;13.80;99.90
51725;DHT22;37801;53.224;6.552;2023-05-10T01:58:21;13.80;99.90
51725;DHT22;37801;53.224;6.552;2023-05-10T02:00:49;13.60;99.90
51725;DHT22;37801;53.224;6.552;2023-05-10T02:03:16;12.90;99.90
51725;DHT22;37801;53.224;6.552;2023-05-10T02:05:46;12.90;99.90
51725;DHT22;37801;53.224;6.552;2023-05-10T02:08:13;13.40;99.90
51725;DHT22;37801;53.224;6.552;2023-05-10T02:10:42;13.10;99.90
51725;DHT22;37801;53.224;6.552;2023-05-10T02:13:11;12.90;99.90
51725;DHT22;37801;53.224;6.552;2023-05-10T02:15:38;13.00;99.90
51725;DHT22;37801;53.224;6.552;2023-05-10T02:18:06;13.00;99.90
51725;DHT22;37801;53.224;6.552;2023-05-10T02:20:33;12.80;99.90
51725;DHT22;37801;53.224;6.552;2023-05-10T02:23:01;13.50;99.90
51725;DHT22;37801;53.224;6.552;2023-05-10T02:25:29;12.80;99.90
51725;DHT22;37801;53.224;6.552;2023-05-10T02:27:56;13.30;99.90
51725;DHT22;37801;53.224;6.552;2023-05-10T02:30:23;13.60;99.90
51725;DHT22;37801;53.224;6.552;2023-05-10T02:32:51;12.80;99.90
51725;DHT22;37801;53.224;6.552;2023-05-10T02:35:17;12.80;99.90
51725;DHT22;37801;53.224;6.552;2023-05-10T02:37:44;13.10;99.90
51725;DHT22;37801;53.224;6.552;2023-05-10T02:40:11;13.40;99.90
51725;DHT22;37801;53.224;6.552;2023-05-10T02:42:41;12.90;99.90
51725;DHT22;37801;53.224;6.552;2023-05-10T02:45:11;13.60;99.90
51725;DHT22;37801;53.224;6.552;2023-05-10T02:47:37;13.50;99.90
51725;DHT22;37801;53.224;6.552;2023-05-10T02:50:04;12.80;99.90
51725;DHT22;37801;53.224;6.552;2023-05-10T02:52:36;13.40;99.90
51725;DHT22;37801;53.224;6.552;2023-05-10T02:55:05;12.70;99.90
51725;DHT22;37801;53.224;6.552;2023-05-10T02:57:34;12.90;99.90
51725;DHT22;37801;53.224;6.552;2023-05-10T03:00:03;12.90;99.90
51725;DHT22;37801;53.224;6.552;2023-05-10T03:02:30;13.50;99.90
51725;DHT22;37801;53.224;6.552;2023-05-10T03:04:56;13.40;99.90
51725;DHT22;37801;53.224;6.552;2023-05-10T03:07:22;13.60;99.90
51725;DHT22;37801;53.224;6.552;2023-05-10T03:09:49;13.00;99.90
51725;DHT22;37801;53.224;6.552;2023-05-10T03:12:38;12.80;99.90
51725;DHT22;37801;53.224;6.552;2023-05-10T03:18:07;12.90;99.90
51725;DHT22;37801;53.224;6.552;2023-05-10T03:20:49;13.60;99.90
51725;DHT22;37801;53.224;6.552;2023-05-10T03:23:35;13.50;99.90
51725;DHT22;37801;53.224;6.552;2023-05-10T03:26:04;13.40;99.90
51725;DHT22;37801;53.224;6.552;2023-05-10T03:28:33;12.70;99.90
51725;DHT22;37801;53.224;6.552;2023-05-10T03:30:59;13.60;99.90
51725;DHT22;37801;53.224;6.552;2023-05-10T03:33:25;12.80;99.90
51725;DHT22;37801;53.224;6.552;2023-05-10T03:35:51;12.90;99.90
51725;DHT22;37801;53.224;6.552;2023-05-10T03:38:17;12.80;99.90
51725;DHT22;37801;53.224;6.552;2023-05-10T03:40:42;13.60;99.90
51725;DHT22;37801;53.224;6.552;2023-05-10T03:43:08;12.80;99.90
51725;DHT22;37801;53.224;6.552;2023-05-10T03:45:34;12.70;99.90
51725;DHT22;37801;53.224;6.552;2023-05-10T03:48:00;13.50;99.90
51725;DHT22;37801;53.224;6.552;2023-05-10T03:50:25;13.10;99.90
51725;DHT22;37801;53.224;6.552;2023-05-10T03:52:51;13.20;99.90
51725;DHT22;37801;53.224;6.552;2023-05-10T03:55:17;12.90;99.90
51725;DHT22;37801;53.224;6.552;2023-05-10T03:57:43;13.60;99.90
51725;DHT22;37801;53.224;6.552;2023-05-10T04:00:09;13.20;99.90
51725;DHT22;37801;53.224;6.552;2023-05-10T04:02:35;13.40;99.90
51725;DHT22;37801;53.224;6.552;2023-05-10T04:05:01;13.30;99.90
51725;DHT22;37801;53.224;6.552;2023-05-10T04:07:28;13.30;99.90
51725;DHT22;37801;53.224;6.552;2023-05-10T04:09:53;13.50;99.90
51725;DHT22;37801;53.224;6.552;2023-05-10T04:12:19;13.30;99.90
51725;DHT22;37801;53.224;6.552;2023-05-10T04:14:45;12.60;99.90
51725;DHT22;37801;53.224;6.552;2023-05-10T04:17:11;13.30;99.90
51725;DHT22;37801;53.224;6.552;2023-05-10T04:19:36;12.50;99.90
51725;DHT22;37801;53.224;6.552;2023-05-10T04:22:02;12.40;99.90
51725;DHT22;37801;53.224;6.552;2023-05-10T04:24:28;12.80;99.90
51725;DHT22;37801;53.224;6.552;2023-05-10T04:26:54;12.50;99.90
51725;DHT22;37801;53.224;6.552;2023-05-10T04:29:20;12.50;99.90
51725;DHT22;37801;53.224;6.552;2023-05-10T04:31:46;13.10;99.90
51725;DHT22;37801;53.224;6.552;2023-05-10T04:34:11;13.10;99.90
51725;DHT22;37801;53.224;6.552;2023-05-10T04:36:37;12.40;99.90
51725;DHT22;37801;53.224;6.552;2023-05-10T04:39:03;13.10;99.90
51725;DHT22;37801;53.224;6.552;2023-05-10T04:41:29;12.50;99.90
51725;DHT22;37801;53.224;6.552;2023-05-10T04:43:55;12.60;99.90
51725;DHT22;37801;53.224;6.552;2023-05-10T04:46:21;12.80;99.90
51725;DHT22;37801;53.224;6.552;2023-05-10T04:48:47;13.20;99.90
51725;DHT22;37801;53.224;6.552;2023-05-10T04:51:13;12.40;99.90
51725;DHT22;37801;53.224;6.552;2023-05-10T04:53:39;12.80;99.90
51725;DHT22;37801;53.224;6.552;2023-05-10T04:56:05;12.70;99.90
51725;DHT22;37801;53.224;6.552;2023-05-10T04:58:31;12.40;99.90
51725;DHT22;37801;53.224;6.552;2023-05-10T05:00:56;13.40;99.90
51725;DHT22;37801;53.224;6.552;2023-05-10T05:03:22;12.70;99.90
51725;DHT22;37801;53.224;6.552;2023-05-10T05:05:48;12.50;99.90
51725;DHT22;37801;53.224;6.552;2023-05-10T05:08:14;13.40;99.90
51725;DHT22;37801;53.224;6.552;2023-05-10T05:10:40;13.00;99.90
51725;DHT22;37801;53.224;6.552;2023-05-10T05:13:05;12.60;99.90
51725;DHT22;37801;53.224;6.552;2023-05-10T05:15:31;13.20;99.90
51725;DHT22;37801;53.224;6.552;2023-05-10T05:17:57;12.60;99.90
51725;DHT22;37801;53.224;6.552;2023-05-10T05:20:23;12.60;99.90
51725;DHT22;37801;53.224;6.552;2023-05-10T05:22:49;13.30;99.90
51725;DHT22;37801;53.224;6.552;2023-05-10T05:25:15;13.30;99.90
51725;DHT22;37801;53.224;6.552;2023-05-10T05:27:41;12.60;99.90
51725;DHT22;37801;53.224;6.552;2023-05-10T05:30:07;13.30;99.90
51725;DHT22;37801;53.224;6.552;2023-05-10T05:32:33;12.70;99.90
51725;DHT22;37801;53.224;6.552;2023-05-10T05:34:59;12.60;99.90
51725;DHT22;37801;53.224;6.552;2023-05-10T05:37:25;13.40;99.90
51725;DHT22;37801;53.224;6.552;2023-05-10T05:39:51;12.60;99.90
51725;DHT22;37801;53.224;6.552;2023-05-10T05:42:16;13.10;99.90
51725;DHT22;37801;53.224;6.552;2023-05-10T05:44:44;12.80;99.90
51725;DHT22;37801;53.224;6.552;2023-05-10T05:47:10;12.70;99.90
51725;DHT22;37801;53.224;6.552;2023-05-10T05:49:36;12.60;99.90
51725;DHT22;37801;53.224;6.552;2023-05-10T05:52:03;13.20;99.90
51725;DHT22;37801;53.224;6.552;2023-05-10T05:54:30;12.60;99.90
51725;DHT22;37801;53.224;6.552;2023-05-10T05:57:00;13.40;99.90
51725;DHT22;37801;53.224;6.552;2023-05-10T05:59:26;13.40;99.90
51725;DHT22;37801;53.224;6.552;2023-05-10T06:01:52;12.60;99.90
51725;DHT22;37801;53.224;6.552;2023-05-10T06:04:18;12.40;99.90
51725;DHT22;37801;53.224;6.552;2023-05-10T06:06:44;13.30;99.90
51725;DHT22;37801;53.224;6.552;2023-05-10T06:09:11;12.40;99.90
51725;DHT22;37801;53.224;6.552;2023-05-10T06:11:37;13.30;99.90
51725;DHT22;37801;53.224;6.552;2023-05-10T06:14:05;12.50;99.90
51725;DHT22;37801;53.224;6.552;2023-05-10T06:16:36;13.40;99.90
51725;DHT22;37801;53.224;6.552;2023-05-10T06:19:02;13.40;99.90
51725;DHT22;37801;53.224;6.552;2023-05-10T06:21:28;12.50;99.90
51725;DHT22;37801;53.224;6.552;2023-05-10T06:23:54;13.30;99.90
51725;DHT22;37801;53.224;6.552;2023-05-10T06:26:19;13.30;99.90
51725;DHT22;37801;53.224;6.552;2023-05-10T06:28:46;13.10;99.90
51725;DHT22;37801;53.224;6.552;2023-05-10T06:31:12;12.90;99.90
51725;DHT22;37801;53.224;6.552;2023-05-10T06:33:37;13.00;99.90
51725;DHT22;37801;53.224;6.552;2023-05-10T06:36:03;12.70;99.90
51725;DHT22;37801;53.224;6.552;2023-05-10T06:38:29;12.80;99.90
51725;DHT22;37801;53.224;6.552;2023-05-10T06:40:55;12.80;99.90
51725;DHT22;37801;53.224;6.552;2023-05-10T06:43:21;13.10;99.90
51725;DHT22;37801;53.224;6.552;2023-05-10T06:45:48;12.90;99.90
51725;DHT22;37801;53.224;6.552;2023-05-10T06:48:13;13.00;99.90
51725;DHT22;37801;53.224;6.552;2023-05-10T06:50:39;12.20;99.90
51725;DHT22;37801;53.224;6.552;2023-05-10T06:53:05;12.20;99.90
51725;DHT22;37801;53.224;6.552;2023-05-10T06:55:31;13.10;99.90
51725;DHT22;37801;53.224;6.552;2023-05-10T06:57:57;12.50;99.90
51725;DHT22;37801;53.224;6.552;2023-05-10T07:00:22;12.90;99.90
51725;DHT22;37801;53.224;6.552;2023-05-10T07:02:48;12.50;99.90
51725;DHT22;37801;53.224;6.552;2023-05-10T07:05:14;12.80;99.90
51725;DHT22;37801;53.224;6.552;2023-05-10T07:07:40;12.10;99.90
51725;DHT22;37801;53.224;6.552;2023-05-10T07:10:06;12.20;99.90
51725;DHT22;37801;53.224;6.552;2023-05-10T07:12:33;12.30;99.90
51725;DHT22;37801;53.224;6.552;2023-05-10T07:14:59;12.30;99.90
51725;DHT22;37801;53.224;6.552;2023-05-10T07:17:24;12.90;99.90
51725;DHT22;37801;53.224;6.552;2023-05-10T07:19:50;13.10;99.90
51725;DHT22;37801;53.224;6.552;2023-05-10T07:22:16;13.10;99.90
51725;DHT22;37801;53.224;6.552;2023-05-10T07:24:44;12.40;99.90
51725;DHT22;37801;53.224;6.552;2023-05-10T07:27:10;12.50;99.90
51725;DHT22;37801;53.224;6.552;2023-05-10T07:29:36;12.50;99.90
51725;DHT22;37801;53.224;6.552;2023-05-10T07:32:03;12.40;99.90
51725;DHT22;37801;53.224;6.552;2023-05-10T07:34:28;12.40;99.90
51725;DHT22;37801;53.224;6.552;2023-05-10T07:36:57;13.00;99.90
51725;DHT22;37801;53.224;6.552;2023-05-10T07:39:23;12.40;99.90
51725;DHT22;37801;53.224;6.552;2023-05-10T07:41:49;13.10;99.90
51725;DHT22;37801;53.224;6.552;2023-05-10T07:44:15;12.30;99.90
51725;DHT22;37801;53.224;6.552;2023-05-10T07:46:43;13.30;99.90
51725;DHT22;37801;53.224;6.552;2023-05-10T07:49:09;12.40;99.90
51725;DHT22;37801;53.224;6.552;2023-05-10T07:51:35;12.30;99.90
51725;DHT22;37801;53.224;6.552;2023-05-10T07:54:01;13.30;99.90
51725;DHT22;37801;53.224;6.552;2023-05-10T07:56:31;12.40;99.90
51725;DHT22;37801;53.224;6.552;2023-05-10T07:59:01;13.20;99.90
51725;DHT22;37801;53.224;6.552;2023-05-10T08:01:31;12.40;99.90
51725;DHT22;37801;53.224;6.552;2023-05-10T08:04:00;13.30;99.90
51725;DHT22;37801;53.224;6.552;2023-05-10T08:06:27;13.30;99.90
51725;DHT22;37801;53.224;6.552;2023-05-10T08:08:55;12.40;99.90
51725;DHT22;37801;53.224;6.552;2023-05-10T08:11:21;12.40;99.90
51725;DHT22;37801;53.224;6.552;2023-05-10T08:13:47;12.40;99.90
51725;DHT22;37801;53.224;6.552;2023-05-10T08:16:14;13.30;99.90
51725;DHT22;37801;53.224;6.552;2023-05-10T08:18:40;13.30;99.90
51725;DHT22;37801;53.224;6.552;2023-05-10T08:21:06;13.20;99.90
51725;DHT22;37801;53.224;6.552;2023-05-10T08:23:32;13.20;99.90
51725;DHT22;37801;53.224;6.552;2023-05-10T08:25:58;13.20;99.90
51725;DHT22;37801;53.224;6.552;2023-05-10T08:28:24;12.80;99.90
51725;DHT22;37801;53.224;6.552;2023-05-10T08:30:50;12.90;99.90
51725;DHT22;37801;53.224;6.552;2023-05-10T08:33:17;13.00;99.90
51725;DHT22;37801;53.224;6.552;2023-05-10T08:35:43;12.90;99.90
51725;DHT22;37801;53.224;6.552;2023-05-10T08:38:09;13.20;99.90
51725;DHT22;37801;53.224;6.552;2023-05-10T08:40:36;13.20;99.90
51725;DHT22;37801;53.224;6.552;2023-05-10T08:43:07;13.00;99.90
51725;DHT22;37801;53.224;6.552;2023-05-10T08:45:44;13.10;99.90
51725;DHT22;37801;53.224;6.552;2023-05-10T08:48:14;13.20;99.90
51725;DHT22;37801;53.224;6.552;2023-05-10T08:50:41;13.20;99.90
51725;DHT22;37801;53.224;6.552;2023-05-10T08:53:12;13.10;99.90
51725;DHT22;37801;53.224;6.552;2023-05-10T08:55:39;13.30;99.90
51725;DHT22;37801;53.224;6.552;2023-05-10T08:58:08;13.20;99.90
51725;DHT22;37801;53.224;6.552;2023-05-10T09:00:35;12.50;99.90
51725;DHT22;37801;53.224;6.552;2023-05-10T09:03:04;12.40;99.90
51725;DHT22;37801;53.224;6.552;2023-05-10T09:05:30;12.50;99.90
51725;DHT22;37801;53.224;6.552;2023-05-10T09:07:56;12.50;99.90
51725;DHT22;37801;53.224;6.552;2023-05-10T09:10:23;12.50;99.90
51725;DHT22;37801;53.224;6.552;2023-05-10T09:12:51;12.90;99.90
51725;DHT22;37801;53.224;6.552;2023-05-10T09:15:18;12.70;99.90
51725;DHT22;37801;53.224;6.552;2023-05-10T09:17:45;12.50;99.90
51725;DHT22;37801;53.224;6.552;2023-05-10T09:20:11;13.20;99.90
51725;DHT22;37801;53.224;6.552;2023-05-10T09:22:37;12.50;99.90
51725;DHT22;37801;53.224;6.552;2023-05-10T09:25:14;13.20;99.90
51725;DHT22;37801;53.224;6.552;2023-05-10T09:27:41;12.60;99.90
51725;DHT22;37801;53.224;6.552;2023-05-10T09:30:10;13.50;99.90
51725;DHT22;37801;53.224;6.552;2023-05-10T09:32:45;13.50;99.90
51725;DHT22;37801;53.224;6.552;2023-05-10T09:35:14;12.90;99.90
51725;DHT22;37801;53.224;6.552;2023-05-10T09:37:41;13.60;99.90
51725;DHT22;37801;53.224;6.552;2023-05-10T09:40:12;13.80;99.90
51725;DHT22;37801;53.224;6.552;2023-05-10T09:42:38;13.90;99.90
51725;DHT22;37801;53.224;6.552;2023-05-10T09:45:05;13.00;99.90
51725;DHT22;37801;53.224;6.552;2023-05-10T09:47:33;13.90;99.90
51725;DHT22;37801;53.224;6.552;2023-05-10T09:50:00;13.80;99.90
51725;DHT22;37801;53.224;6.552;2023-05-10T09:52:30;13.30;99.90
51725;DHT22;37801;53.224;6.552;2023-05-10T09:54:56;13.90;99.90
51725;DHT22;37801;53.224;6.552;2023-05-10T09:57:23;13.10;99.90
51725;DHT22;37801;53.224;6.552;2023-05-10T09:59:49;13.20;99.90
51725;DHT22;37801;53.224;6.552;2023-05-10T10:02:16;13.20;99.90
51725;DHT22;37801;53.224;6.552;2023-05-10T10:04:42;13.20;99.90
51725;DHT22;37801;53.224;6.552;2023-05-10T10:07:08;13.50;99.90
51725;DHT22;37801;53.224;6.552;2023-05-10T10:09:34;14.00;99.90
51725;DHT22;37801;53.224;6.552;2023-05-10T10:12:01;14.30;99.90
51725;DHT22;37801;53.224;6.552;2023-05-10T10:14:30;14.00;99.90
51725;DHT22;37801;53.224;6.552;2023-05-10T10:16:56;14.30;99.90
51725;DHT22;37801;53.224;6.552;2023-05-10T10:19:22;13.60;99.90
51725;DHT22;37801;53.224;6.552;2023-05-10T10:21:49;14.00;99.90
51725;DHT22;37801;53.224;6.552;2023-05-10T10:24:15;14.20;99.90
51725;DHT22;37801;53.224;6.552;2023-05-10T10:26:42;13.30;99.90
51725;DHT22;37801;53.224;6.552;2023-05-10T10:29:20;13.60;99.90
51725;DHT22;37801;53.224;6.552;2023-05-10T10:32:03;13.40;99.90
51725;DHT22;37801;53.224;6.552;2023-05-10T10:34:32;13.50;99.90
51725;DHT22;37801;53.224;6.552;2023-05-10T10:37:04;13.60;99.90
51725;DHT22;37801;53.224;6.552;2023-05-10T10:39:30;14.50;99.90
51725;DHT22;37801;53.224;6.552;2023-05-10T10:41:57;14.10;99.90
51725;DHT22;37801;53.224;6.552;2023-05-10T10:44:25;14.00;99.90
51725;DHT22;37801;53.224;6.552;2023-05-10T10:47:21;13.70;99.90
51725;DHT22;37801;53.224;6.552;2023-05-10T10:50:05;14.00;99.90
51725;DHT22;37801;53.224;6.552;2023-05-10T10:52:36;13.60;99.90
51725;DHT22;37801;53.224;6.552;2023-05-10T10:55:12;13.60;99.90
51725;DHT22;37801;53.224;6.552;2023-05-10T11:00:23;13.50;99.90
51725;DHT22;37801;53.224;6.552;2023-05-10T11:03:03;14.40;99.90
51725;DHT22;37801;53.224;6.552;2023-05-10T11:08:00;14.00;99.90
51725;DHT22;37801;53.224;6.552;2023-05-10T11:10:27;13.70;99.90
51725;DHT22;37801;53.224;6.552;2023-05-10T11:13:03;13.90;99.90
51725;DHT22;37801;53.224;6.552;2023-05-10T11:15:40;14.30;99.90
51725;DHT22;37801;53.224;6.552;2023-05-10T11:20:56;14.70;99.90
51725;DHT22;37801;53.224;6.552;2023-05-10T11:23:28;14.00;99.90
51725;DHT22;37801;53.224;6.552;2023-05-10T11:25:54;14.60;99.90
51725;DHT22;37801;53.224;6.552;2023-05-10T11:28:20;13.90;99.90
51725;DHT22;37801;53.224;6.552;2023-05-10T11:30:47;14.70;99.90
51725;DHT22;37801;53.224;6.552;2023-05-10T11:33:17;14.30;99.90
51725;DHT22;37801;53.224;6.552;2023-05-10T11:35:43;14.40;99.90
51725;DHT22;37801;53.224;6.552;2023-05-10T11:38:10;14.50;99.90
51725;DHT22;37801;53.224;6.552;2023-05-10T11:40:38;13.90;99.90
51725;DHT22;37801;53.224;6.552;2023-05-10T11:43:04;14.50;99.90
51725;DHT22;37801;53.224;6.552;2023-05-10T11:45:34;14.60;99.90
51725;DHT22;37801;53.224;6.552;2023-05-10T11:48:01;14.40;99.90
51725;DHT22;37801;53.224;6.552;2023-05-10T11:50:27;14.40;99.90
51725;DHT22;37801;53.224;6.552;2023-05-10T11:52:54;13.90;99.90
51725;DHT22;37801;53.224;6.552;2023-05-10T11:55:21;14.60;99.90
51725;DHT22;37801;53.224;6.552;2023-05-10T11:57:47;14.00;99.90
51725;DHT22;37801;53.224;6.552;2023-05-10T12:00:13;14.70;99.90
51725;DHT22;37801;53.224;6.552;2023-05-10T12:02:40;14.10;99.90
51725;DHT22;37801;53.224;6.552;2023-05-10T12:05:06;14.30;99.90
51725;DHT22;37801;53.224;6.552;2023-05-10T12:07:32;14.50;99.90
51725;DHT22;37801;53.224;6.552;2023-05-10T12:10:12;13.90;99.90
51725;DHT22;37801;53.224;6.552;2023-05-10T12:12:46;13.90;99.90
51725;DHT22;37801;53.224;6.552;2023-05-10T12:15:23;14.00;99.90
51725;DHT22;37801;53.224;6.552;2023-05-10T12:17:50;13.80;99.90
51725;DHT22;37801;53.224;6.552;2023-05-10T12:20:20;13.90;99.90
51725;DHT22;37801;53.224;6.552;2023-05-10T12:22:53;13.90;99.90
51725;DHT22;37801;53.224;6.552;2023-05-10T12:25:20;13.80;99.90
51725;DHT22;37801;53.224;6.552;2023-05-10T12:27:58;14.10;99.90
51725;DHT22;37801;53.224;6.552;2023-05-10T12:30:27;14.00;99.90
51725;DHT22;37801;53.224;6.552;2023-05-10T12:32:54;14.20;99.90
51725;DHT22;37801;53.224;6.552;2023-05-10T12:35:24;14.20;99.90
51725;DHT22;37801;53.224;6.552;2023-05-10T12:37:53;14.20;99.90
51725;DHT22;37801;53.224;6.552;2023-05-10T12:40:19;14.10;99.90
51725;DHT22;37801;53.224;6.552;2023-05-10T12:42:45;14.20;99.90
51725;DHT22;37801;53.224;6.552;2023-05-10T12:45:11;14.30;99.90
51725;DHT22;37801;53.224;6.552;2023-05-10T12:47:37;14.20;99.90
51725;DHT22;37801;53.224;6.552;2023-05-10T12:50:03;14.30;99.90
51725;DHT22;37801;53.224;6.552;2023-05-10T12:52:30;14.30;99.90
51725;DHT22;37801;53.224;6.552;2023-05-10T12:54:57;14.30;99.90
51725;DHT22;37801;53.224;6.552;2023-05-10T12:57:24;14.20;99.90
51725;DHT22;37801;53.224;6.552;2023-05-10T12:59:50;14.20;99.90
51725;DHT22;37801;53.224;6.552;2023-05-10T13:02:16;14.10;99.90
51725;DHT22;37801;53.224;6.552;2023-05-10T13:04:44;14.20;99.90
51725;DHT22;37801;53.224;6.552;2023-05-10T13:07:10;14.10;99.90
51725;DHT22;37801;53.224;6.552;2023-05-10T13:09:36;14.10;99.90
51725;DHT22;37801;53.224;6.552;2023-05-10T13:12:02;14.20;99.90
51725;DHT22;37801;53.224;6.552;2023-05-10T13:14:29;14.30;99.90
51725;DHT22;37801;53.224;6.552;2023-05-10T13:16:55;14.30;99.90
51725;DHT22;37801;53.224;6.552;2023-05-10T13:19:21;14.40;99.90
51725;DHT22;37801;53.224;6.552;2023-05-10T13:21:47;14.30;99.90
51725;DHT22;37801;53.224;6.552;2023-05-10T13:24:13;14.30;99.90
51725;DHT22;37801;53.224;6.552;2023-05-10T13:26:40;14.40;99.90
51725;DHT22;37801;53.224;6.552;2023-05-10T13:29:06;14.40;99.90
51725;DHT22;37801;53.224;6.552;2023-05-10T13:31:33;14.30;99.90
51725;DHT22;37801;53.224;6.552;2023-05-10T13:33:59;14.20;99.90
51725;DHT22;37801;53.224;6.552;2023-05-10T13:36:26;14.20;99.90
51725;DHT22;37801;53.224;6.552;2023-05-10T13:38:51;14.20;99.90
51725;DHT22;37801;53.224;6.552;2023-05-10T13:41:17;14.30;99.90
51725;DHT22;37801;53.224;6.552;2023-05-10T13:43:43;14.20;99.90
51725;DHT22;37801;53.224;6.552;2023-05-10T13:46:09;14.10;99.90
51725;DHT22;37801;53.224;6.552;2023-05-10T13:48:35;14.20;99.90
51725;DHT22;37801;53.224;6.552;2023-05-10T13:51:02;14.20;99.90
51725;DHT22;37801;53.224;6.552;2023-05-10T13:53:28;14.20;99.90
51725;DHT22;37801;53.224;6.552;2023-05-10T13:55:54;14.10;99.90
51725;DHT22;37801;53.224;6.552;2023-05-10T13:58:19;13.90;99.90
51725;DHT22;37801;53.224;6.552;2023-05-10T14:00:45;14.00;99.90
51725;DHT22;37801;53.224;6.552;2023-05-10T14:03:11;14.00;99.90
51725;DHT22;37801;53.224;6.552;2023-05-10T14:05:37;14.00;99.90
51725;DHT22;37801;53.224;6.552;2023-05-10T14:08:03;14.00;99.90
51725;DHT22;37801;53.224;6.552;2023-05-10T14:10:29;14.10;99.90
51725;DHT22;37801;53.224;6.552;2023-05-10T14:12:55;14.20;99.90
51725;DHT22;37801;53.224;6.552;2023-05-10T14:15:21;14.20;99.90
51725;DHT22;37801;53.224;6.552;2023-05-10T14:17:47;14.20;99.90
51725;DHT22;37801;53.224;6.552;2023-05-10T14:20:13;14.10;99.90
51725;DHT22;37801;53.224;6.552;2023-05-10T14:22:39;14.10;99.90
51725;DHT22;37801;53.224;6.552;2023-05-10T14:25:06;14.20;99.90
51725;DHT22;37801;53.224;6.552;2023-05-10T14:27:32;14.20;99.90
51725;DHT22;37801;53.224;6.552;2023-05-10T14:29:58;14.20;99.90
51725;DHT22;37801;53.224;6.552;2023-05-10T14:32:23;14.10;99.90
51725;DHT22;37801;53.224;6.552;2023-05-10T14:34:49;14.20;99.90
51725;DHT22;37801;53.224;6.552;2023-05-10T14:37:16;14.20;99.90
51725;DHT22;37801;53.224;6.552;2023-05-10T14:39:42;14.30;99.90
51725;DHT22;37801;53.224;6.552;2023-05-10T14:42:08;14.40;99.90
51725;DHT22;37801;53.224;6.552;2023-05-10T14:44:34;14.50;99.90
51725;DHT22;37801;53.224;6.552;2023-05-10T14:47:00;14.50;99.90
51725;DHT22;37801;53.224;6.552;2023-05-10T14:49:26;14.50;99.90
51725;DHT22;37801;53.224;6.552;2023-05-10T14:51:52;14.60;99.90
51725;DHT22;37801;53.224;6.552;2023-05-10T14:54:18;14.70;99.90
51725;DHT22;37801;53.224;6.552;2023-05-10T14:56:44;14.70;99.90
51725;DHT22;37801;53.224;6.552;2023-05-10T14:59:10;14.80;99.90
51725;DHT22;37801;53.224;6.552;2023-05-10T15:01:36;14.70;99.90
51725;DHT22;37801;53.224;6.552;2023-05-10T15:04:06;14.80;99.90
51725;DHT22;37801;53.224;6.552;2023-05-10T15:06:33;14.90;99.90
51725;DHT22;37801;53.224;6.552;2023-05-10T15:09:00;14.90;99.90
51725;DHT22;37801;53.224;6.552;2023-05-10T15:11:26;14.80;99.90
51725;DHT22;37801;53.224;6.552;2023-05-10T15:13:52;14.80;99.90
51725;DHT22;37801;53.224;6.552;2023-05-10T15:16:18;14.80;99.90
51725;DHT22;37801;53.224;6.552;2023-05-10T15:18:44;14.80;99.90
51725;DHT22;37801;53.224;6.552;2023-05-10T15:21:11;14.80;99.90
51725;DHT22;37801;53.224;6.552;2023-05-10T15:23:37;14.80;99.90
51725;DHT22;37801;53.224;6.552;2023-05-10T15:26:03;14.80;99.90
51725;DHT22;37801;53.224;6.552;2023-05-10T15:28:29;14.80;99.90
51725;DHT22;37801;53.224;6.552;2023-05-10T15:30:55;14.80;99.90
51725;DHT22;37801;53.224;6.552;2023-05-10T15:33:22;14.80;99.90
51725;DHT22;37801;53.224;6.552;2023-05-10T15:35:48;14.80;99.90
51725;DHT22;37801;53.224;6.552;2023-05-10T15:38:14;14.70;99.90
51725;DHT22;37801;53.224;6.552;2023-05-10T15:40:40;14.60;99.90
51725;DHT22;37801;53.224;6.552;2023-05-10T15:43:06;14.60;99.90
51725;DHT22;37801;53.224;6.552;2023-05-10T15:45:32;14.50;99.90
51725;DHT22;37801;53.224;6.552;2023-05-10T15:47:58;14.40;99.90
51725;DHT22;37801;53.224;6.552;2023-05-10T15:50:24;14.30;99.90